North Sandwich, New Hampshire
Current Conditions -  °F | °C
As of 3:35 AM on Saturday 25 Oct 2014 (Local Time) from K1P1 Reporting Station
Clear Clear  
Wind Chill: 41°   Ceiling: Unl
Heat Index: 46°   Visibility: 10mi
Dew Point: 37°   Wind: 9mph
Humidity: 72%   Direction: 280°W
Pressure: 29.72"   Gusts: NA
Location:  43.84°N, 71.4°W
Report Text: K1P1 250735Z AUTO 28008KT 10SM CLR 08/03 A2972 RMK AO2 T00770030
Loading
Personal Weather Stations






























Interactive Weather Map
Tropical Storm Tracking
New forecast layout! Learn more

10-Day Weather Forecast

Advertisements
Track Severe Weather on mobile